sensor_id;sensor_type;location;lat;lon;timestamp;temperature;humidity
4651;DHT22;2338;49.602;8.722;2023-02-28T00:00:27;2.00;58.50
4651;DHT22;2338;49.602;8.722;2023-02-28T00:03:13;2.10;58.70
4651;DHT22;2338;49.602;8.722;2023-02-28T00:05:58;2.10;59.10
4651;DHT22;2338;49.602;8.722;2023-02-28T00:08:44;2.10;59.00
4651;DHT22;2338;49.602;8.722;2023-02-28T00:11:31;2.10;59.10
4651;DHT22;2338;49.602;8.722;2023-02-28T00:14:17;2.10;59.60
4651;DHT22;2338;49.602;8.722;2023-02-28T00:17:02;2.00;59.90
4651;DHT22;2338;49.602;8.722;2023-02-28T00:19:48;2.00;60.60
4651;DHT22;2338;49.602;8.722;2023-02-28T00:22:35;2.00;61.30
4651;DHT22;2338;49.602;8.722;2023-02-28T00:25:22;2.00;60.90
4651;DHT22;2338;49.602;8.722;2023-02-28T00:28:09;2.00;61.20
4651;DHT22;2338;49.602;8.722;2023-02-28T00:30:55;2.00;61.30
4651;DHT22;2338;49.602;8.722;2023-02-28T00:33:41;1.90;61.20
4651;DHT22;2338;49.602;8.722;2023-02-28T00:36:27;1.90;61.20
4651;DHT22;2338;49.602;8.722;2023-02-28T00:39:12;1.90;61.90
4651;DHT22;2338;49.602;8.722;2023-02-28T00:41:58;1.90;61.60
4651;DHT22;2338;49.602;8.722;2023-02-28T00:44:45;1.90;62.00
4651;DHT22;2338;49.602;8.722;2023-02-28T00:47:30;1.90;62.20
4651;DHT22;2338;49.602;8.722;2023-02-28T00:50:16;1.90;62.30
4651;DHT22;2338;49.602;8.722;2023-02-28T00:53:02;1.80;62.80
4651;DHT22;2338;49.602;8.722;2023-02-28T00:55:49;1.80;63.10
4651;DHT22;2338;49.602;8.722;2023-02-28T00:58:34;1.70;63.70
4651;DHT22;2338;49.602;8.722;2023-02-28T01:01:21;1.70;64.20
4651;DHT22;2338;49.602;8.722;2023-02-28T01:04:07;1.60;64.90
4651;DHT22;2338;49.602;8.722;2023-02-28T01:06:53;1.50;65.60
4651;DHT22;2338;49.602;8.722;2023-02-28T01:09:38;1.50;66.20
4651;DHT22;2338;49.602;8.722;2023-02-28T01:12:24;1.60;66.40
4651;DHT22;2338;49.602;8.722;2023-02-28T01:15:10;1.50;66.30
4651;DHT22;2338;49.602;8.722;2023-02-28T01:17:58;1.60;66.60
4651;DHT22;2338;49.602;8.722;2023-02-28T01:20:43;1.50;67.00
4651;DHT22;2338;49.602;8.722;2023-02-28T01:23:30;1.50;67.10
4651;DHT22;2338;49.602;8.722;2023-02-28T01:26:18;1.60;67.30
4651;DHT22;2338;49.602;8.722;2023-02-28T01:29:04;1.50;67.60
4651;DHT22;2338;49.602;8.722;2023-02-28T01:31:49;1.60;67.20
4651;DHT22;2338;49.602;8.722;2023-02-28T01:34:37;1.50;67.60
4651;DHT22;2338;49.602;8.722;2023-02-28T01:37:22;1.50;67.70
4651;DHT22;2338;49.602;8.722;2023-02-28T01:40:09;1.40;68.00
4651;DHT22;2338;49.602;8.722;2023-02-28T01:42:55;1.40;68.70
4651;DHT22;2338;49.602;8.722;2023-02-28T01:45:41;1.40;69.20
4651;DHT22;2338;49.602;8.722;2023-02-28T01:48:31;1.30;70.10
4651;DHT22;2338;49.602;8.722;2023-02-28T01:51:22;1.30;70.40
4651;DHT22;2338;49.602;8.722;2023-02-28T01:54:15;1.30;70.60
4651;DHT22;2338;49.602;8.722;2023-02-28T01:57:03;1.20;71.00
4651;DHT22;2338;49.602;8.722;2023-02-28T01:59:54;1.20;71.30
4651;DHT22;2338;49.602;8.722;2023-02-28T02:02:44;1.10;72.50
4651;DHT22;2338;49.602;8.722;2023-02-28T02:05:32;1.20;72.50
4651;DHT22;2338;49.602;8.722;2023-02-28T02:08:23;1.20;72.70
4651;DHT22;2338;49.602;8.722;2023-02-28T02:11:10;1.20;72.70
4651;DHT22;2338;49.602;8.722;2023-02-28T02:14:37;1.20;72.40
4651;DHT22;2338;49.602;8.722;2023-02-28T02:17:32;1.20;72.60
4651;DHT22;2338;49.602;8.722;2023-02-28T02:24:16;1.20;73.00
4651;DHT22;2338;49.602;8.722;2023-02-28T02:27:17;1.20;72.90
4651;DHT22;2338;49.602;8.722;2023-02-28T02:30:39;1.30;73.00
4651;DHT22;2338;49.602;8.722;2023-02-28T02:34:03;1.20;73.60
4651;DHT22;2338;49.602;8.722;2023-02-28T02:36:55;1.20;73.00
4651;DHT22;2338;49.602;8.722;2023-02-28T02:39:50;1.20;73.10
4651;DHT22;2338;49.602;8.722;2023-02-28T02:42:41;1.20;73.10
4651;DHT22;2338;49.602;8.722;2023-02-28T02:45:33;1.20;73.10
4651;DHT22;2338;49.602;8.722;2023-02-28T02:48:25;1.20;73.10
4651;DHT22;2338;49.602;8.722;2023-02-28T02:51:15;1.10;73.70
4651;DHT22;2338;49.602;8.722;2023-02-28T02:54:06;1.10;74.10
4651;DHT22;2338;49.602;8.722;2023-02-28T02:56:57;1.10;74.40
4651;DHT22;2338;49.602;8.722;2023-02-28T02:59:44;1.10;74.40
4651;DHT22;2338;49.602;8.722;2023-02-28T03:02:30;1.10;74.40
4651;DHT22;2338;49.602;8.722;2023-02-28T03:05:21;1.00;74.50
4651;DHT22;2338;49.602;8.722;2023-02-28T03:08:10;1.00;74.70
4651;DHT22;2338;49.602;8.722;2023-02-28T03:10:57;1.00;75.30
4651;DHT22;2338;49.602;8.722;2023-02-28T03:13:54;1.00;74.80
4651;DHT22;2338;49.602;8.722;2023-02-28T03:16:54;0.90;75.70
4651;DHT22;2338;49.602;8.722;2023-02-28T03:19:51;0.90;76.70
4651;DHT22;2338;49.602;8.722;2023-02-28T03:22:53;0.90;76.50
4651;DHT22;2338;49.602;8.722;2023-02-28T03:25:53;0.90;76.90
4651;DHT22;2338;49.602;8.722;2023-02-28T03:28:43;0.90;77.00
4651;DHT22;2338;49.602;8.722;2023-02-28T03:31:32;0.90;76.80
4651;DHT22;2338;49.602;8.722;2023-02-28T03:34:25;0.80;77.30
4651;DHT22;2338;49.602;8.722;2023-02-28T03:37:14;0.90;77.40
4651;DHT22;2338;49.602;8.722;2023-02-28T03:40:04;0.90;77.10
4651;DHT22;2338;49.602;8.722;2023-02-28T03:42:57;0.80;77.40
4651;DHT22;2338;49.602;8.722;2023-02-28T03:45:45;0.80;77.80
4651;DHT22;2338;49.602;8.722;2023-02-28T03:48:34;0.80;77.70
4651;DHT22;2338;49.602;8.722;2023-02-28T03:51:23;0.80;77.80
4651;DHT22;2338;49.602;8.722;2023-02-28T03:54:13;0.80;77.70
4651;DHT22;2338;49.602;8.722;2023-02-28T03:57:07;0.70;78.10
4651;DHT22;2338;49.602;8.722;2023-02-28T03:59:59;0.80;77.80
4651;DHT22;2338;49.602;8.722;2023-02-28T04:02:48;0.80;77.60
4651;DHT22;2338;49.602;8.722;2023-02-28T04:05:50;0.80;77.80
4651;DHT22;2338;49.602;8.722;2023-02-28T04:08:36;0.70;77.80
4651;DHT22;2338;49.602;8.722;2023-02-28T04:11:25;0.80;78.60
4651;DHT22;2338;49.602;8.722;2023-02-28T04:14:13;0.70;78.50
4651;DHT22;2338;49.602;8.722;2023-02-28T04:17:00;0.60;78.50
4651;DHT22;2338;49.602;8.722;2023-02-28T04:19:45;0.60;79.10
4651;DHT22;2338;49.602;8.722;2023-02-28T04:22:31;0.60;79.30
4651;DHT22;2338;49.602;8.722;2023-02-28T04:25:17;0.70;79.00
4651;DHT22;2338;49.602;8.722;2023-02-28T04:28:02;0.70;79.20
4651;DHT22;2338;49.602;8.722;2023-02-28T04:30:54;0.70;78.90
4651;DHT22;2338;49.602;8.722;2023-02-28T04:33:41;0.70;78.90
4651;DHT22;2338;49.602;8.722;2023-02-28T04:36:27;0.70;79.20
4651;DHT22;2338;49.602;8.722;2023-02-28T04:39:13;0.70;79.30
4651;DHT22;2338;49.602;8.722;2023-02-28T04:41:59;0.60;80.10
4651;DHT22;2338;49.602;8.722;2023-02-28T04:44:44;0.60;79.90
4651;DHT22;2338;49.602;8.722;2023-02-28T04:47:31;0.70;80.00
4651;DHT22;2338;49.602;8.722;2023-02-28T04:50:18;0.60;79.70
4651;DHT22;2338;49.602;8.722;2023-02-28T04:53:03;0.60;79.60
4651;DHT22;2338;49.602;8.722;2023-02-28T04:55:49;0.60;79.70
4651;DHT22;2338;49.602;8.722;2023-02-28T04:58:35;0.70;80.00
4651;DHT22;2338;49.602;8.722;2023-02-28T05:01:23;0.50;80.40
4651;DHT22;2338;49.602;8.722;2023-02-28T05:04:09;0.40;80.90
4651;DHT22;2338;49.602;8.722;2023-02-28T05:06:56;0.40;81.70
4651;DHT22;2338;49.602;8.722;2023-02-28T05:09:42;0.50;81.80
4651;DHT22;2338;49.602;8.722;2023-02-28T05:12:28;0.40;82.00
4651;DHT22;2338;49.602;8.722;2023-02-28T05:15:15;0.50;82.10
4651;DHT22;2338;49.602;8.722;2023-02-28T05:18:01;0.50;82.10
4651;DHT22;2338;49.602;8.722;2023-02-28T05:20:47;0.50;82.50
4651;DHT22;2338;49.602;8.722;2023-02-28T05:23:34;0.50;81.80
4651;DHT22;2338;49.602;8.722;2023-02-28T05:26:19;0.60;82.40
4651;DHT22;2338;49.602;8.722;2023-02-28T05:29:05;0.60;82.00
4651;DHT22;2338;49.602;8.722;2023-02-28T05:31:51;0.60;82.10
4651;DHT22;2338;49.602;8.722;2023-02-28T05:34:37;0.60;82.50
4651;DHT22;2338;49.602;8.722;2023-02-28T05:37:23;0.60;82.50
4651;DHT22;2338;49.602;8.722;2023-02-28T05:40:11;0.50;82.80
4651;DHT22;2338;49.602;8.722;2023-02-28T05:42:57;0.50;82.60
4651;DHT22;2338;49.602;8.722;2023-02-28T05:45:42;0.50;82.50
4651;DHT22;2338;49.602;8.722;2023-02-28T05:48:28;0.60;82.60
4651;DHT22;2338;49.602;8.722;2023-02-28T05:51:14;0.60;82.20
4651;DHT22;2338;49.602;8.722;2023-02-28T05:54:00;0.60;81.90
4651;DHT22;2338;49.602;8.722;2023-02-28T05:56:47;0.60;82.00
4651;DHT22;2338;49.602;8.722;2023-02-28T05:59:33;0.50;82.10
4651;DHT22;2338;49.602;8.722;2023-02-28T06:02:19;0.50;82.40
4651;DHT22;2338;49.602;8.722;2023-02-28T06:05:05;0.50;82.70
4651;DHT22;2338;49.602;8.722;2023-02-28T06:07:50;0.50;82.70
4651;DHT22;2338;49.602;8.722;2023-02-28T06:10:36;0.50;82.80
4651;DHT22;2338;49.602;8.722;2023-02-28T06:13:23;0.50;82.50
4651;DHT22;2338;49.602;8.722;2023-02-28T06:16:10;0.50;82.80
4651;DHT22;2338;49.602;8.722;2023-02-28T06:18:57;0.50;82.50
4651;DHT22;2338;49.602;8.722;2023-02-28T06:21:43;0.40;82.70
4651;DHT22;2338;49.602;8.722;2023-02-28T06:24:29;0.40;82.80
4651;DHT22;2338;49.602;8.722;2023-02-28T06:27:15;0.40;83.40
4651;DHT22;2338;49.602;8.722;2023-02-28T06:30:02;0.40;83.30
4651;DHT22;2338;49.602;8.722;2023-02-28T06:32:48;0.40;83.50
4651;DHT22;2338;49.602;8.722;2023-02-28T06:35:34;0.40;83.30
4651;DHT22;2338;49.602;8.722;2023-02-28T06:38:20;0.30;83.70
4651;DHT22;2338;49.602;8.722;2023-02-28T06:41:06;0.20;84.70
4651;DHT22;2338;49.602;8.722;2023-02-28T06:43:52;0.20;84.90
4651;DHT22;2338;49.602;8.722;2023-02-28T06:46:40;0.30;85.40
4651;DHT22;2338;49.602;8.722;2023-02-28T06:49:25;0.20;85.80
4651;DHT22;2338;49.602;8.722;2023-02-28T06:52:11;0.30;85.60
4651;DHT22;2338;49.602;8.722;2023-02-28T06:54:57;0.30;85.30
4651;DHT22;2338;49.602;8.722;2023-02-28T06:57:45;0.40;85.60
4651;DHT22;2338;49.602;8.722;2023-02-28T07:00:31;0.40;85.10
4651;DHT22;2338;49.602;8.722;2023-02-28T07:03:18;0.40;85.00
4651;DHT22;2338;49.602;8.722;2023-02-28T07:06:04;0.50;85.20
4651;DHT22;2338;49.602;8.722;2023-02-28T07:08:51;0.50;84.90
4651;DHT22;2338;49.602;8.722;2023-02-28T07:11:37;0.60;84.00
4651;DHT22;2338;49.602;8.722;2023-02-28T07:14:23;0.70;84.10
4651;DHT22;2338;49.602;8.722;2023-02-28T07:17:09;0.70;83.70
4651;DHT22;2338;49.602;8.722;2023-02-28T07:19:57;0.80;83.30
4651;DHT22;2338;49.602;8.722;2023-02-28T07:22:43;0.90;83.10
4651;DHT22;2338;49.602;8.722;2023-02-28T07:25:29;1.00;82.60
4651;DHT22;2338;49.602;8.722;2023-02-28T07:28:15;1.10;81.60
4651;DHT22;2338;49.602;8.722;2023-02-28T07:31:04;1.20;81.50
4651;DHT22;2338;49.602;8.722;2023-02-28T07:33:49;1.10;82.10
4651;DHT22;2338;49.602;8.722;2023-02-28T07:36:37;1.20;81.60
4651;DHT22;2338;49.602;8.722;2023-02-28T07:39:22;1.30;81.20
4651;DHT22;2338;49.602;8.722;2023-02-28T07:42:08;1.40;79.50
4651;DHT22;2338;49.602;8.722;2023-02-28T07:44:55;1.40;79.10
4651;DHT22;2338;49.602;8.722;2023-02-28T07:47:42;1.40;79.60
4651;DHT22;2338;49.602;8.722;2023-02-28T07:50:27;1.40;79.10
4651;DHT22;2338;49.602;8.722;2023-02-28T07:53:16;1.50;78.70
4651;DHT22;2338;49.602;8.722;2023-02-28T07:56:02;1.60;78.30
4651;DHT22;2338;49.602;8.722;2023-02-28T07:58:48;1.60;78.10
4651;DHT22;2338;49.602;8.722;2023-02-28T08:01:34;1.70;77.80
4651;DHT22;2338;49.602;8.722;2023-02-28T08:04:19;1.70;78.40
4651;DHT22;2338;49.602;8.722;2023-02-28T08:07:05;1.80;76.80
4651;DHT22;2338;49.602;8.722;2023-02-28T08:09:52;1.90;75.00
4651;DHT22;2338;49.602;8.722;2023-02-28T08:12:37;1.90;76.60
4651;DHT22;2338;49.602;8.722;2023-02-28T08:15:23;2.10;75.20
4651;DHT22;2338;49.602;8.722;2023-02-28T08:18:09;2.10;74.20
4651;DHT22;2338;49.602;8.722;2023-02-28T08:20:54;2.20;74.30
4651;DHT22;2338;49.602;8.722;2023-02-28T08:23:42;2.30;74.20
4651;DHT22;2338;49.602;8.722;2023-02-28T08:26:29;2.40;70.90
4651;DHT22;2338;49.602;8.722;2023-02-28T08:29:14;2.40;71.90
4651;DHT22;2338;49.602;8.722;2023-02-28T08:32:00;2.50;71.00
4651;DHT22;2338;49.602;8.722;2023-02-28T08:34:46;2.60;70.10
4651;DHT22;2338;49.602;8.722;2023-02-28T08:37:32;2.70;68.80
4651;DHT22;2338;49.602;8.722;2023-02-28T08:40:17;2.70;68.00
4651;DHT22;2338;49.602;8.722;2023-02-28T08:43:04;2.80;68.40
4651;DHT22;2338;49.602;8.722;2023-02-28T08:45:51;2.80;68.20
4651;DHT22;2338;49.602;8.722;2023-02-28T08:48:37;2.90;65.80
4651;DHT22;2338;49.602;8.722;2023-02-28T08:51:23;2.90;63.40
4651;DHT22;2338;49.602;8.722;2023-02-28T08:54:11;2.90;63.70
4651;DHT22;2338;49.602;8.722;2023-02-28T08:56:57;2.90;62.00
4651;DHT22;2338;49.602;8.722;2023-02-28T08:59:44;2.90;62.40
4651;DHT22;2338;49.602;8.722;2023-02-28T09:02:30;3.10;63.30
4651;DHT22;2338;49.602;8.722;2023-02-28T09:05:16;3.20;62.20
4651;DHT22;2338;49.602;8.722;2023-02-28T09:08:01;3.20;60.60
4651;DHT22;2338;49.602;8.722;2023-02-28T09:10:48;3.30;58.30
4651;DHT22;2338;49.602;8.722;2023-02-28T09:13:33;3.30;56.50
4651;DHT22;2338;49.602;8.722;2023-02-28T09:16:21;3.30;56.40
4651;DHT22;2338;49.602;8.722;2023-02-28T09:19:06;3.40;55.20
4651;DHT22;2338;49.602;8.722;2023-02-28T09:21:55;3.50;53.80
4651;DHT22;2338;49.602;8.722;2023-02-28T09:24:41;3.60;53.30
4651;DHT22;2338;49.602;8.722;2023-02-28T09:27:28;3.70;51.20
4651;DHT22;2338;49.602;8.722;2023-02-28T09:30:14;3.80;50.80
4651;DHT22;2338;49.602;8.722;2023-02-28T09:33:01;3.80;50.80
4651;DHT22;2338;49.602;8.722;2023-02-28T09:35:48;3.90;51.00
4651;DHT22;2338;49.602;8.722;2023-02-28T09:38:33;4.10;49.60
4651;DHT22;2338;49.602;8.722;2023-02-28T09:41:21;4.20;47.40
4651;DHT22;2338;49.602;8.722;2023-02-28T09:44:11;4.30;47.50
4651;DHT22;2338;49.602;8.722;2023-02-28T09:47:03;4.40;46.00
4651;DHT22;2338;49.602;8.722;2023-02-28T09:49:52;4.40;45.60
4651;DHT22;2338;49.602;8.722;2023-02-28T09:52:38;4.40;46.70
4651;DHT22;2338;49.602;8.722;2023-02-28T09:55:30;4.50;45.00
4651;DHT22;2338;49.602;8.722;2023-02-28T09:58:22;4.60;45.60
4651;DHT22;2338;49.602;8.722;2023-02-28T10:01:17;4.60;44.30
4651;DHT22;2338;49.602;8.722;2023-02-28T10:04:09;4.60;44.20
4651;DHT22;2338;49.602;8.722;2023-02-28T10:06:58;4.60;43.20
4651;DHT22;2338;49.602;8.722;2023-02-28T10:09:45;4.70;44.00
4651;DHT22;2338;49.602;8.722;2023-02-28T10:12:33;4.80;44.20
4651;DHT22;2338;49.602;8.722;2023-02-28T10:15:19;5.00;43.00
4651;DHT22;2338;49.602;8.722;2023-02-28T10:18:12;5.10;42.50
4651;DHT22;2338;49.602;8.722;2023-02-28T10:20:58;5.20;41.90
4651;DHT22;2338;49.602;8.722;2023-02-28T10:23:46;5.30;40.00
4651;DHT22;2338;49.602;8.722;2023-02-28T10:26:33;5.30;39.30
4651;DHT22;2338;49.602;8.722;2023-02-28T10:29:19;5.30;39.20
4651;DHT22;2338;49.602;8.722;2023-02-28T10:32:05;5.20;40.80
4651;DHT22;2338;49.602;8.722;2023-02-28T10:34:52;5.00;38.80
4651;DHT22;2338;49.602;8.722;2023-02-28T10:37:42;4.80;40.10
4651;DHT22;2338;49.602;8.722;2023-02-28T10:40:34;4.60;41.80
4651;DHT22;2338;49.602;8.722;2023-02-28T10:43:22;4.70;42.90
4651;DHT22;2338;49.602;8.722;2023-02-28T10:46:15;4.80;40.90
4651;DHT22;2338;49.602;8.722;2023-02-28T10:49:15;4.90;42.20
4651;DHT22;2338;49.602;8.722;2023-02-28T10:52:02;5.00;40.70
4651;DHT22;2338;49.602;8.722;2023-02-28T10:54:48;5.20;39.30
4651;DHT22;2338;49.602;8.722;2023-02-28T10:57:35;5.40;39.20
4651;DHT22;2338;49.602;8.722;2023-02-28T11:00:23;5.70;38.40
4651;DHT22;2338;49.602;8.722;2023-02-28T11:03:23;5.60;35.50
4651;DHT22;2338;49.602;8.722;2023-02-28T11:06:15;5.30;37.30
4651;DHT22;2338;49.602;8.722;2023-02-28T11:09:03;4.90;37.50
4651;DHT22;2338;49.602;8.722;2023-02-28T11:11:50;4.70;38.50
4651;DHT22;2338;49.602;8.722;2023-02-28T11:14:47;4.80;38.60
4651;DHT22;2338;49.602;8.722;2023-02-28T11:17:34;4.90;39.50
4651;DHT22;2338;49.602;8.722;2023-02-28T11:20:22;5.30;41.20
4651;DHT22;2338;49.602;8.722;2023-02-28T11:23:13;5.80;38.70
4651;DHT22;2338;49.602;8.722;2023-02-28T11:26:01;6.30;37.00
4651;DHT22;2338;49.602;8.722;2023-02-28T11:29:03;6.50;33.50
4651;DHT22;2338;49.602;8.722;2023-02-28T11:32:12;6.50;33.80
4651;DHT22;2338;49.602;8.722;2023-02-28T11:35:04;6.50;32.80
4651;DHT22;2338;49.602;8.722;2023-02-28T11:37:59;6.50;33.50
4651;DHT22;2338;49.602;8.722;2023-02-28T11:40:49;6.70;32.20
4651;DHT22;2338;49.602;8.722;2023-02-28T11:43:46;6.60;31.30
4651;DHT22;2338;49.602;8.722;2023-02-28T11:46:40;6.60;30.00
4651;DHT22;2338;49.602;8.722;2023-02-28T11:49:34;6.60;31.00
4651;DHT22;2338;49.602;8.722;2023-02-28T11:52:33;6.90;32.30
4651;DHT22;2338;49.602;8.722;2023-02-28T11:55:25;7.10;31.00
4651;DHT22;2338;49.602;8.722;2023-02-28T11:58:29;7.20;30.00
4651;DHT22;2338;49.602;8.722;2023-02-28T12:01:32;7.30;29.20
4651;DHT22;2338;49.602;8.722;2023-02-28T12:04:25;7.30;29.10
4651;DHT22;2338;49.602;8.722;2023-02-28T12:07:18;7.30;29.40
4651;DHT22;2338;49.602;8.722;2023-02-28T12:10:20;7.50;29.60
4651;DHT22;2338;49.602;8.722;2023-02-28T12:13:16;7.30;28.00
4651;DHT22;2338;49.602;8.722;2023-02-28T12:19:20;7.40;29.30
4651;DHT22;2338;49.602;8.722;2023-02-28T12:22:22;7.60;28.80
4651;DHT22;2338;49.602;8.722;2023-02-28T12:28:39;7.50;28.20
4651;DHT22;2338;49.602;8.722;2023-02-28T12:31:30;7.40;28.40
4651;DHT22;2338;49.602;8.722;2023-02-28T12:34:21;7.50;28.20
4651;DHT22;2338;49.602;8.722;2023-02-28T12:37:15;7.70;28.80
4651;DHT22;2338;49.602;8.722;2023-02-28T12:40:07;7.70;28.30
4651;DHT22;2338;49.602;8.722;2023-02-28T12:42:58;7.80;27.20
4651;DHT22;2338;49.602;8.722;2023-02-28T12:45:47;7.80;27.50
4651;DHT22;2338;49.602;8.722;2023-02-28T12:48:38;7.90;27.30
4651;DHT22;2338;49.602;8.722;2023-02-28T12:51:26;7.90;26.60
4651;DHT22;2338;49.602;8.722;2023-02-28T12:54:19;7.70;26.90
4651;DHT22;2338;49.602;8.722;2023-02-28T12:57:11;7.80;28.10
4651;DHT22;2338;49.602;8.722;2023-02-28T13:00:01;7.90;27.10
4651;DHT22;2338;49.602;8.722;2023-02-28T13:03:08;8.00;26.30
4651;DHT22;2338;49.602;8.722;2023-02-28T13:06:14;8.20;27.00
4651;DHT22;2338;49.602;8.722;2023-02-28T13:09:09;8.40;26.10
4651;DHT22;2338;49.602;8.722;2023-02-28T13:11:55;8.60;26.10
4651;DHT22;2338;49.602;8.722;2023-02-28T13:14:43;8.50;24.70
4651;DHT22;2338;49.602;8.722;2023-02-28T13:17:29;8.50;25.90
4651;DHT22;2338;49.602;8.722;2023-02-28T13:20:16;8.50;26.90
4651;DHT22;2338;49.602;8.722;2023-02-28T13:23:03;8.50;25.90
4651;DHT22;2338;49.602;8.722;2023-02-28T13:25:53;8.60;25.80
4651;DHT22;2338;49.602;8.722;2023-02-28T13:32:36;8.60;24.80
4651;DHT22;2338;49.602;8.722;2023-02-28T13:35:43;8.40;25.80
4651;DHT22;2338;49.602;8.722;2023-02-28T13:38:48;8.40;25.80
4651;DHT22;2338;49.602;8.722;2023-02-28T13:41:47;8.50;25.80
4651;DHT22;2338;49.602;8.722;2023-02-28T13:48:00;8.30;25.10
4651;DHT22;2338;49.602;8.722;2023-02-28T13:50:47;8.10;26.40
4651;DHT22;2338;49.602;8.722;2023-02-28T13:53:46;8.20;26.00
4651;DHT22;2338;49.602;8.722;2023-02-28T13:56:42;8.10;26.00
4651;DHT22;2338;49.602;8.722;2023-02-28T13:59:34;8.10;26.30
4651;DHT22;2338;49.602;8.722;2023-02-28T14:02:43;8.30;25.80
4651;DHT22;2338;49.602;8.722;2023-02-28T14:05:34;8.50;25.40
4651;DHT22;2338;49.602;8.722;2023-02-28T14:08:21;8.60;25.50
4651;DHT22;2338;49.602;8.722;2023-02-28T14:11:15;8.50;24.50
4651;DHT22;2338;49.602;8.722;2023-02-28T14:14:52;8.50;25.20
4651;DHT22;2338;49.602;8.722;2023-02-28T14:17:17;8.90;24.10
4651;DHT22;2338;49.602;8.722;2023-02-28T14:20:03;8.90;23.70
4651;DHT22;2338;49.602;8.722;2023-02-28T14:22:54;8.90;25.30
4651;DHT22;2338;49.602;8.722;2023-02-28T14:25:49;8.90;23.80
4651;DHT22;2338;49.602;8.722;2023-02-28T14:28:56;9.20;23.60
4651;DHT22;2338;49.602;8.722;2023-02-28T14:31:54;9.40;23.40
4651;DHT22;2338;49.602;8.722;2023-02-28T14:34:50;9.40;23.30
4651;DHT22;2338;49.602;8.722;2023-02-28T14:37:40;9.50;23.00
4651;DHT22;2338;49.602;8.722;2023-02-28T14:40:29;9.50;22.70
4651;DHT22;2338;49.602;8.722;2023-02-28T14:43:21;9.40;23.00
4651;DHT22;2338;49.602;8.722;2023-02-28T14:46:07;9.10;22.60
4651;DHT22;2338;49.602;8.722;2023-02-28T14:48:52;8.60;23.60
4651;DHT22;2338;49.602;8.722;2023-02-28T14:51:40;8.10;24.70
4651;DHT22;2338;49.602;8.722;2023-02-28T14:54:25;7.50;25.70
4651;DHT22;2338;49.602;8.722;2023-02-28T14:57:21;7.20;26.70
4651;DHT22;2338;49.602;8.722;2023-02-28T15:00:14;7.00;26.90
4651;DHT22;2338;49.602;8.722;2023-02-28T15:03:11;6.90;26.30
4651;DHT22;2338;49.602;8.722;2023-02-28T15:06:04;6.70;27.30
4651;DHT22;2338;49.602;8.722;2023-02-28T15:09:07;6.60;27.50
4651;DHT22;2338;49.602;8.722;2023-02-28T15:11:54;6.60;27.60
4651;DHT22;2338;49.602;8.722;2023-02-28T15:14:42;6.80;27.70
4651;DHT22;2338;49.602;8.722;2023-02-28T15:17:28;7.50;26.60
4651;DHT22;2338;49.602;8.722;2023-02-28T15:20:15;8.30;24.80
4651;DHT22;2338;49.602;8.722;2023-02-28T15:23:02;8.70;23.70
4651;DHT22;2338;49.602;8.722;2023-02-28T15:25:50;9.10;24.30
4651;DHT22;2338;49.602;8.722;2023-02-28T15:28:36;9.80;21.70
4651;DHT22;2338;49.602;8.722;2023-02-28T15:31:26;10.60;20.50
4651;DHT22;2338;49.602;8.722;2023-02-28T15:34:19;11.30;19.30
4651;DHT22;2338;49.602;8.722;2023-02-28T15:40:15;11.50;18.50
4651;DHT22;2338;49.602;8.722;2023-02-28T15:43:07;10.60;18.70
4651;DHT22;2338;49.602;8.722;2023-02-28T15:46:00;9.60;21.70
4651;DHT22;2338;49.602;8.722;2023-02-28T15:48:51;8.70;22.80
4651;DHT22;2338;49.602;8.722;2023-02-28T15:51:37;8.00;23.60
4651;DHT22;2338;49.602;8.722;2023-02-28T15:54:26;7.50;24.90
4651;DHT22;2338;49.602;8.722;2023-02-28T15:57:17;7.00;26.60
4651;DHT22;2338;49.602;8.722;2023-02-28T16:00:10;6.70;27.60
4651;DHT22;2338;49.602;8.722;2023-02-28T16:02:57;6.50;29.30
4651;DHT22;2338;49.602;8.722;2023-02-28T16:05:42;6.30;28.90
4651;DHT22;2338;49.602;8.722;2023-02-28T16:08:28;6.30;29.30
4651;DHT22;2338;49.602;8.722;2023-02-28T16:11:13;6.10;30.00
4651;DHT22;2338;49.602;8.722;2023-02-28T16:13:59;6.10;30.50
4651;DHT22;2338;49.602;8.722;2023-02-28T16:16:48;6.00;30.90
4651;DHT22;2338;49.602;8.722;2023-02-28T16:19:35;6.00;30.50
4651;DHT22;2338;49.602;8.722;2023-02-28T16:22:21;5.90;31.70
4651;DHT22;2338;49.602;8.722;2023-02-28T16:25:10;5.80;32.60
4651;DHT22;2338;49.602;8.722;2023-02-28T16:27:56;5.80;32.20
4651;DHT22;2338;49.602;8.722;2023-02-28T16:30:44;5.80;32.60
4651;DHT22;2338;49.602;8.722;2023-02-28T16:33:32;5.80;32.70
4651;DHT22;2338;49.602;8.722;2023-02-28T16:36:20;5.80;31.20
4651;DHT22;2338;49.602;8.722;2023-02-28T16:39:06;5.80;32.30
4651;DHT22;2338;49.602;8.722;2023-02-28T16:41:52;5.80;31.50
4651;DHT22;2338;49.602;8.722;2023-02-28T16:44:38;5.80;32.60
4651;DHT22;2338;49.602;8.722;2023-02-28T16:47:24;5.70;32.80
4651;DHT22;2338;49.602;8.722;2023-02-28T16:50:15;5.70;32.20
4651;DHT22;2338;49.602;8.722;2023-02-28T16:53:01;5.50;33.50
4651;DHT22;2338;49.602;8.722;2023-02-28T16:55:46;5.50;33.40
4651;DHT22;2338;49.602;8.722;2023-02-28T16:58:32;5.50;34.60
4651;DHT22;2338;49.602;8.722;2023-02-28T17:01:19;5.50;35.60
4651;DHT22;2338;49.602;8.722;2023-02-28T17:04:06;5.40;35.90
4651;DHT22;2338;49.602;8.722;2023-02-28T17:06:53;5.40;35.90
4651;DHT22;2338;49.602;8.722;2023-02-28T17:09:39;5.40;36.20
4651;DHT22;2338;49.602;8.722;2023-02-28T17:12:24;5.40;36.60
4651;DHT22;2338;49.602;8.722;2023-02-28T17:15:12;5.40;36.20
4651;DHT22;2338;49.602;8.722;2023-02-28T17:17:57;5.30;37.60
4651;DHT22;2338;49.602;8.722;2023-02-28T17:20:43;5.20;39.10
4651;DHT22;2338;49.602;8.722;2023-02-28T17:23:30;5.10;43.10
4651;DHT22;2338;49.602;8.722;2023-02-28T17:26:17;5.00;44.90
4651;DHT22;2338;49.602;8.722;2023-02-28T17:29:06;4.90;45.80
4651;DHT22;2338;49.602;8.722;2023-02-28T17:31:56;4.80;47.50
4651;DHT22;2338;49.602;8.722;2023-02-28T17:34:42;4.70;49.90
4651;DHT22;2338;49.602;8.722;2023-02-28T17:37:30;4.60;52.80
4651;DHT22;2338;49.602;8.722;2023-02-28T17:40:19;4.50;55.20
4651;DHT22;2338;49.602;8.722;2023-02-28T17:43:05;4.30;57.20
4651;DHT22;2338;49.602;8.722;2023-02-28T17:45:50;4.20;59.30
4651;DHT22;2338;49.602;8.722;2023-02-28T17:48:36;4.10;59.70
4651;DHT22;2338;49.602;8.722;2023-02-28T17:51:23;4.00;60.10
4651;DHT22;2338;49.602;8.722;2023-02-28T17:54:09;4.00;59.30
4651;DHT22;2338;49.602;8.722;2023-02-28T17:56:56;3.80;62.20
4651;DHT22;2338;49.602;8.722;2023-02-28T17:59:42;3.80;63.50
4651;DHT22;2338;49.602;8.722;2023-02-28T18:02:28;3.70;64.90
4651;DHT22;2338;49.602;8.722;2023-02-28T18:05:13;3.70;66.00
4651;DHT22;2338;49.602;8.722;2023-02-28T18:07:59;3.60;66.80
4651;DHT22;2338;49.602;8.722;2023-02-28T18:10:45;3.50;67.40
4651;DHT22;2338;49.602;8.722;2023-02-28T18:13:32;3.40;68.40
4651;DHT22;2338;49.602;8.722;2023-02-28T18:16:19;3.30;68.90
4651;DHT22;2338;49.602;8.722;2023-02-28T18:19:05;3.20;70.00
4651;DHT22;2338;49.602;8.722;2023-02-28T18:21:53;3.20;70.40
4651;DHT22;2338;49.602;8.722;2023-02-28T18:24:38;3.10;71.40
4651;DHT22;2338;49.602;8.722;2023-02-28T18:27:24;3.10;71.80
4651;DHT22;2338;49.602;8.722;2023-02-28T18:30:12;3.10;72.70
4651;DHT22;2338;49.602;8.722;2023-02-28T18:32:59;3.10;72.40
4651;DHT22;2338;49.602;8.722;2023-02-28T18:35:45;3.10;72.00
4651;DHT22;2338;49.602;8.722;2023-02-28T18:38:31;3.00;72.20
4651;DHT22;2338;49.602;8.722;2023-02-28T18:41:18;3.00;73.30
4651;DHT22;2338;49.602;8.722;2023-02-28T18:44:05;2.90;73.10
4651;DHT22;2338;49.602;8.722;2023-02-28T18:46:52;2.90;74.20
4651;DHT22;2338;49.602;8.722;2023-02-28T18:49:38;2.80;74.70
4651;DHT22;2338;49.602;8.722;2023-02-28T18:52:23;2.80;75.70
4651;DHT22;2338;49.602;8.722;2023-02-28T18:55:09;2.80;76.30
4651;DHT22;2338;49.602;8.722;2023-02-28T18:57:58;2.70;75.60
4651;DHT22;2338;49.602;8.722;2023-02-28T19:00:43;2.70;76.40